Time;durP1;ratioP1;P1;durP2;ratioP2;P2;SDS_P1;SDS_P2;PMS_P1;PMS_P2;Temp;Humidity;BMP_temperature;BMP_pressure;BME280_temperature;BME280_humidity;BME280_pressure;Samples;Min_cycle;Max_cycle;Signal;HPM_P1;HPM_P2
2022/02/18 00:01:01;;;;;;;2.10;1.20;;;9.30;99.30;;;;;;5095028;28;20646;-64
2022/02/18 00:03:27;;;;;;;2.67;1.80;;;9.30;99.40;;;;;;5094126;28;20208;-66
2022/02/18 00:05:53;;;;;;;6.53;1.33;;;9.30;99.40;;;;;;5093228;28;20662;-65
2022/02/18 00:08:20;;;;;;;3.65;1.10;;;9.30;99.50;;;;;;5094514;28;20184;-67
2022/02/18 00:10:46;;;;;;;5.47;1.05;;;9.20;99.40;;;;;;5094356;28;20195;-64
2022/02/18 00:13:13;;;;;;;6.80;1.83;;;9.10;99.40;;;;;;5092730;28;20581;-64
2022/02/18 00:15:39;;;;;;;1.77;1.60;;;9.10;99.50;;;;;;5094402;28;20192;-64
2022/02/18 00:18:05;;;;;;;2.97;1.25;;;9.00;99.50;;;;;;5094493;28;20164;-62
2022/02/18 00:20:33;;;;;;;12.00;1.70;;;8.90;99.70;;;;;;5093363;28;20229;-65
2022/02/18 00:23:07;;;;;;;10.77;2.70;;;8.80;99.80;;;;;;5092611;28;20173;-64
2022/02/18 00:25:38;;;;;;;3.97;2.42;;;8.70;99.90;;;;;;5093992;28;20206;-64
2022/02/18 00:28:04;;;;;;;1.42;1.33;;;8.70;99.90;;;;;;5094355;28;20164;-66
2022/02/18 00:30:30;;;;;;;5.85;1.58;;;8.60;99.90;;;;;;5093656;28;20269;-65
2022/02/18 00:32:56;;;;;;;1.43;1.43;;;8.40;99.90;;;;;;5093664;28;20630;-65
2022/02/18 00:35:22;;;;;;;7.00;3.53;;;8.40;99.90;;;;;;5094247;28;20475;-67
2022/02/18 00:37:49;;;;;;;2.38;2.10;;;8.40;99.90;;;;;;5094352;28;20168;-64
2022/02/18 00:40:15;;;;;;;1.70;1.00;;;8.40;99.90;;;;;;5093835;28;20168;-67
2022/02/18 00:42:41;;;;;;;1.23;0.95;;;8.40;99.90;;;;;;5093953;28;20182;-64
2022/02/18 00:45:08;;;;;;;2.25;1.02;;;8.40;99.90;;;;;;5094008;28;20550;-66
2022/02/18 00:47:34;;;;;;;2.72;1.45;;;8.50;99.90;;;;;;5094231;28;20176;-64
2022/02/18 00:49:59;;;;;;;5.43;1.33;;;8.50;99.90;;;;;;5093771;28;20249;-66
2022/02/18 00:52:25;;;;;;;6.07;1.83;;;8.60;99.90;;;;;;5094066;28;20237;-63
2022/02/18 00:54:51;;;;;;;3.30;1.73;;;8.60;99.90;;;;;;5094785;28;20191;-65
2022/02/18 00:57:16;;;;;;;1.73;1.53;;;8.60;99.90;;;;;;5105133;28;20179;-64
2022/02/18 00:59:43;;;;;;;2.70;1.40;;;8.60;99.90;;;;;;5105190;28;20198;-63
2022/02/18 01:02:08;;;;;;;4.55;1.52;;;8.70;99.90;;;;;;5106525;28;20289;-63
2022/02/18 01:04:35;;;;;;;10.00;2.07;;;8.80;99.90;;;;;;5103300;28;20635;-65
2022/02/18 01:07:01;;;;;;;2.97;1.67;;;8.80;99.90;;;;;;5103907;28;20262;-65
2022/02/18 01:09:27;;;;;;;8.93;3.15;;;8.90;99.90;;;;;;5104525;28;20198;-64
2022/02/18 01:11:53;;;;;;;4.30;1.48;;;8.90;99.90;;;;;;5105387;28;20168;-66
2022/02/18 01:14:19;;;;;;;3.27;1.90;;;9.00;99.90;;;;;;5093624;28;20562;-65
2022/02/18 01:16:44;;;;;;;7.47;2.47;;;9.00;99.90;;;;;;5094285;28;20934;-65
2022/02/18 01:19:10;;;;;;;9.53;1.20;;;9.00;99.90;;;;;;5094280;28;20164;-64
2022/02/18 01:21:37;;;;;;;2.80;1.50;;;9.00;99.90;;;;;;5094095;28;20179;-65
2022/02/18 01:24:05;;;;;;;2.97;2.30;;;9.10;99.90;;;;;;5092604;28;20200;-63
2022/02/18 01:26:32;;;;;;;6.88;1.95;;;9.10;99.90;;;;;;5093388;28;20226;-64
2022/02/18 01:28:57;;;;;;;3.05;1.30;;;9.10;99.90;;;;;;5093775;28;20204;-66
2022/02/18 01:31:25;;;;;;;6.33;1.20;;;9.00;99.90;;;;;;5093965;28;20577;-65
2022/02/18 01:33:52;;;;;;;4.85;2.45;;;9.00;99.90;;;;;;5097288;28;20188;-67
2022/02/18 01:36:19;;;;;;;6.63;1.65;;;9.10;99.90;;;;;;5097641;28;20567;-64
2022/02/18 01:38:45;;;;;;;1.23;1.05;;;9.10;99.90;;;;;;5097281;28;20211;-67
2022/02/18 01:41:11;;;;;;;2.77;1.73;;;9.10;99.90;;;;;;5096834;28;20207;-65
2022/02/18 01:43:37;;;;;;;2.10;1.08;;;9.10;99.90;;;;;;5096555;28;20180;-66
2022/02/18 01:46:04;;;;;;;1.20;0.80;;;9.20;99.90;;;;;;5096043;28;20276;-64
2022/02/18 01:48:30;;;;;;;4.72;1.70;;;9.10;99.90;;;;;;5097222;28;20200;-66
2022/02/18 01:50:58;;;;;;;0.73;0.73;;;9.20;99.90;;;;;;5096937;28;20179;-65
2022/02/18 01:53:24;;;;;;;1.20;1.10;;;9.20;99.90;;;;;;5076377;28;20500;-64
2022/02/18 01:55:49;;;;;;;1.92;1.40;;;9.20;99.90;;;;;;5075352;28;20193;-65
2022/02/18 01:58:19;;;;;;;5.20;2.00;;;9.20;99.90;;;;;;5076836;28;20619;-66
2022/02/18 02:00:45;;;;;;;3.60;1.30;;;9.20;99.90;;;;;;5076736;28;20252;-64
2022/02/18 02:03:11;;;;;;;2.40;0.97;;;9.20;99.90;;;;;;5094852;28;20263;-64
2022/02/18 02:05:36;;;;;;;1.90;1.23;;;9.20;99.90;;;;;;5096638;28;20278;-66
2022/02/18 02:08:02;;;;;;;5.60;1.80;;;9.30;99.90;;;;;;5096714;28;20183;-64
2022/02/18 02:10:29;;;;;;;6.80;2.17;;;9.20;99.90;;;;;;5096514;28;20678;-65
2022/02/18 02:12:54;;;;;;;4.57;1.10;;;9.20;99.90;;;;;;5095917;28;20637;-63
2022/02/18 02:15:25;;;;;;;5.57;1.83;;;9.20;99.90;;;;;;5096679;28;20214;-66
2022/02/18 02:17:51;;;;;;;2.15;0.90;;;9.20;99.90;;;;;;5096697;28;20653;-63
2022/02/18 02:20:18;;;;;;;9.13;1.57;;;9.20;99.90;;;;;;5096598;28;20172;-64
2022/02/18 02:22:45;;;;;;;3.08;0.90;;;9.30;99.90;;;;;;5096048;28;20430;-65
2022/02/18 02:25:10;;;;;;;1.50;1.33;;;9.30;99.80;;;;;;5096562;28;20219;-66
2022/02/18 02:27:37;;;;;;;2.87;1.60;;;9.30;99.90;;;;;;5096554;28;20198;-69
2022/02/18 02:30:04;;;;;;;4.65;1.52;;;9.30;99.90;;;;;;5096449;28;20208;-67
2022/02/18 02:32:30;;;;;;;9.65;1.70;;;9.30;99.90;;;;;;5095955;28;20251;-65
2022/02/18 02:34:56;;;;;;;7.00;1.60;;;9.30;99.80;;;;;;5094519;28;20322;-68
2022/02/18 02:37:22;;;;;;;4.97;2.10;;;9.40;99.80;;;;;;5096609;28;20634;-67
2022/02/18 02:39:48;;;;;;;4.97;1.45;;;9.40;99.90;;;;;;5096315;28;20659;-64
2022/02/18 02:42:14;;;;;;;6.53;1.95;;;9.40;99.90;;;;;;5096082;28;20313;-66
2022/02/18 02:44:40;;;;;;;1.43;0.90;;;9.40;99.70;;;;;;5095041;28;20267;-65
2022/02/18 02:47:05;;;;;;;4.17;2.50;;;9.40;99.70;;;;;;5096173;28;20172;-66
2022/02/18 02:49:32;;;;;;;1.80;0.93;;;9.30;99.90;;;;;;5096163;28;20195;-64
2022/02/18 02:51:57;;;;;;;10.77;2.28;;;9.30;99.90;;;;;;5095741;28;20475;-66
2022/02/18 02:54:23;;;;;;;2.57;1.33;;;9.30;99.90;;;;;;5095421;28;20742;-66
2022/02/18 02:56:49;;;;;;;3.73;2.70;;;9.20;99.90;;;;;;5095797;28;20172;-66
2022/02/18 02:59:15;;;;;;;1.23;0.83;;;9.20;99.90;;;;;;5095558;28;20441;-64
2022/02/18 03:01:40;;;;;;;2.73;0.90;;;9.20;99.90;;;;;;5095932;28;20253;-68
2022/02/18 03:04:06;;;;;;;3.30;0.87;;;9.10;99.90;;;;;;5095176;28;20207;-66
2022/02/18 03:06:32;;;;;;;1.17;1.03;;;9.10;99.90;;;;;;5095739;28;20176;-63
2022/02/18 03:08:58;;;;;;;5.63;1.50;;;9.10;99.90;;;;;;5095497;28;20192;-64
2022/02/18 03:11:24;;;;;;;4.07;1.23;;;9.10;99.90;;;;;;5095804;28;20637;-63
2022/02/18 03:13:54;;;;;;;2.25;0.90;;;9.00;99.90;;;;;;5095031;28;20417;-67
2022/02/18 03:16:21;;;;;;;2.22;2.03;;;9.00;99.90;;;;;;5095405;28;20634;-64
2022/02/18 03:18:47;;;;;;;2.65;1.20;;;9.10;99.90;;;;;;5095381;28;20176;-66
2022/02/18 03:21:14;;;;;;;6.85;1.85;;;9.10;99.90;;;;;;5095300;28;20164;-64
2022/02/18 03:23:45;;;;;;;1.23;1.15;;;9.10;99.90;;;;;;5094892;28;20172;-66
2022/02/18 03:26:12;;;;;;;1.65;0.90;;;9.10;99.90;;;;;;5095411;28;20222;-65
2022/02/18 03:28:38;;;;;;;5.88;2.17;;;9.10;99.90;;;;;;5094972;28;20287;-67
2022/02/18 03:31:03;;;;;;;2.73;1.00;;;9.10;99.90;;;;;;5095351;28;20239;-64
2022/02/18 03:33:29;;;;;;;2.30;1.80;;;9.10;99.90;;;;;;5094980;28;20595;-66
2022/02/18 03:35:55;;;;;;;3.43;1.33;;;9.00;99.90;;;;;;5095073;28;20245;-65
2022/02/18 03:38:21;;;;;;;3.23;1.93;;;9.00;99.90;;;;;;5093695;28;20513;-67
2022/02/18 03:40:47;;;;;;;3.90;1.90;;;9.00;99.90;;;;;;5093619;28;20417;-64
2022/02/18 03:43:13;;;;;;;1.83;1.25;;;9.00;99.90;;;;;;5094452;28;21021;-65
2022/02/18 03:45:39;;;;;;;6.15;1.23;;;9.00;99.90;;;;;;5094951;28;20223;-68
2022/02/18 03:48:05;;;;;;;1.43;1.33;;;9.00;99.90;;;;;;5094832;28;20281;-63
2022/02/18 03:50:31;;;;;;;7.87;1.17;;;9.00;99.90;;;;;;5094703;28;20210;-63
2022/02/18 03:52:57;;;;;;;2.63;1.17;;;9.00;99.90;;;;;;5094606;28;20668;-64
2022/02/18 03:55:24;;;;;;;5.97;1.23;;;9.00;99.90;;;;;;5093828;28;20437;-66
2022/02/18 03:57:50;;;;;;;5.07;1.80;;;9.00;99.90;;;;;;5094884;28;20179;-65
2022/02/18 04:00:16;;;;;;;0.80;0.70;;;9.00;99.90;;;;;;5094319;28;20184;-64
2022/02/18 04:02:42;;;;;;;6.45;1.10;;;9.00;99.90;;;;;;5094539;28;20530;-65
2022/02/18 04:05:08;;;;;;;5.80;1.95;;;9.10;99.90;;;;;;5094439;28;20215;-65
2022/02/18 04:07:34;;;;;;;1.67;1.03;;;9.00;99.90;;;;;;5094335;28;20182;-63
2022/02/18 04:10:00;;;;;;;1.33;0.80;;;9.00;99.90;;;;;;5094244;28;20336;-66
2022/02/18 04:12:25;;;;;;;2.67;1.13;;;9.00;99.90;;;;;;5094611;28;20418;-66
2022/02/18 04:14:51;;;;;;;3.77;1.70;;;9.00;99.90;;;;;;5093919;28;20187;-65
2022/02/18 04:17:17;;;;;;;1.13;1.10;;;9.00;99.90;;;;;;5094432;28;20484;-64
2022/02/18 04:19:43;;;;;;;1.73;1.63;;;9.00;99.90;;;;;;5094050;28;20200;-65
2022/02/18 04:22:08;;;;;;;2.20;1.43;;;9.00;99.90;;;;;;5093035;28;20233;-63
2022/02/18 04:24:34;;;;;;;2.03;1.07;;;9.00;99.90;;;;;;5093858;28;20790;-64
2022/02/18 04:27:00;;;;;;;4.63;2.03;;;9.00;99.90;;;;;;5094214;28;20172;-65
2022/02/18 04:29:25;;;;;;;1.30;0.90;;;9.00;99.90;;;;;;5093730;28;20200;-64
2022/02/18 04:31:52;;;;;;;1.80;1.10;;;9.00;99.90;;;;;;5094183;28;20168;-66
2022/02/18 04:34:18;;;;;;;3.83;1.40;;;9.00;99.90;;;;;;5093446;28;20180;-63
2022/02/18 04:36:43;;;;;;;8.03;1.60;;;9.00;99.90;;;;;;5094108;28;20225;-66
2022/02/18 04:39:09;;;;;;;1.40;0.90;;;9.00;99.90;;;;;;5093622;28;20168;-62
2022/02/18 04:41:37;;;;;;;3.27;0.90;;;9.10;99.90;;;;;;5093930;28;20172;-65
2022/02/18 04:44:04;;;;;;;1.40;1.00;;;9.10;99.90;;;;;;5093365;28;20211;-64
2022/02/18 04:46:31;;;;;;;1.05;0.95;;;9.10;99.90;;;;;;5093702;28;20179;-65
2022/02/18 04:48:57;;;;;;;3.30;1.30;;;9.00;99.90;;;;;;5093582;28;20211;-65
2022/02/18 04:51:23;;;;;;;3.35;1.27;;;9.00;99.90;;;;;;5093819;28;20168;-66
2022/02/18 04:53:49;;;;;;;1.30;1.20;;;9.00;99.90;;;;;;5093291;28;20637;-65
2022/02/18 04:56:14;;;;;;;3.20;0.83;;;9.10;99.90;;;;;;5093918;28;20196;-64
2022/02/18 04:58:40;;;;;;;2.40;1.23;;;9.20;99.90;;;;;;5093375;28;20265;-66
2022/02/18 05:01:09;;;;;;;10.00;1.70;;;9.20;99.90;;;;;;5093653;28;20183;-65
2022/02/18 05:03:35;;;;;;;7.40;2.03;;;9.20;99.90;;;;;;5093028;28;20262;-67
2022/02/18 05:06:02;;;;;;;4.67;0.97;;;9.30;99.90;;;;;;5093189;28;20221;-64
2022/02/18 05:08:28;;;;;;;2.42;1.42;;;9.30;99.90;;;;;;5093562;28;20385;-65
2022/02/18 05:10:54;;;;;;;3.90;2.13;;;9.40;99.90;;;;;;5093524;28;20183;-65
2022/02/18 05:13:19;;;;;;;2.80;1.23;;;9.50;99.90;;;;;;5093013;28;20248;-67
2022/02/18 05:15:45;;;;;;;1.50;1.00;;;9.60;99.90;;;;;;5093397;28;20270;-64
2022/02/18 05:18:11;;;;;;;1.80;1.20;;;9.70;99.90;;;;;;5093610;28;20175;-65
2022/02/18 05:20:36;;;;;;;0.80;0.80;;;9.70;99.90;;;;;;5091805;28;20422;-65
2022/02/18 05:23:02;;;;;;;5.97;1.40;;;9.80;99.90;;;;;;5092923;28;20176;-65
2022/02/18 05:25:31;;;;;;;1.30;1.30;;;9.80;99.90;;;;;;5093115;28;20568;-65
2022/02/18 05:28:04;;;;;;;0.82;0.82;;;9.90;99.90;;;;;;5093321;28;20179;-65
2022/02/18 05:30:33;;;;;;;2.55;2.05;;;9.90;99.90;;;;;;5092854;28;20207;-64
2022/02/18 05:32:58;;;;;;;4.53;1.13;;;9.90;99.90;;;;;;5092886;28;20708;-63
2022/02/18 05:35:24;;;;;;;2.53;1.33;;;9.90;99.90;;;;;;5093047;28;20192;-64
2022/02/18 05:37:50;;;;;;;3.07;1.10;;;9.90;99.90;;;;;;5093491;28;20184;-65
2022/02/18 05:40:16;;;;;;;2.50;1.60;;;9.90;99.90;;;;;;5092990;28;20704;-66
2022/02/18 05:42:41;;;;;;;1.50;0.90;;;9.90;99.90;;;;;;5092545;28;20172;-63
2022/02/18 05:45:07;;;;;;;4.50;1.37;;;9.90;99.90;;;;;;5092998;28;20188;-66
2022/02/18 05:47:35;;;;;;;4.40;2.33;;;9.90;99.90;;;;;;5091711;28;20172;-62
2022/02/18 05:50:03;;;;;;;3.60;0.90;;;9.80;99.90;;;;;;5092695;28;20196;-66
2022/02/18 05:52:28;;;;;;;2.05;1.15;;;9.80;99.90;;;;;;5093040;28;20168;-64
2022/02/18 05:54:54;;;;;;;2.23;1.33;;;9.80;99.90;;;;;;5092623;28;20274;-67
2022/02/18 05:57:22;;;;;;;1.20;1.10;;;9.80;99.90;;;;;;5092976;28;20175;-65
2022/02/18 05:59:48;;;;;;;4.78;2.58;;;9.90;99.90;;;;;;5092934;28;20180;-64
2022/02/18 06:02:13;;;;;;;1.20;1.17;;;9.90;99.90;;;;;;5093083;28;20256;-63
2022/02/18 06:04:39;;;;;;;10.13;2.33;;;9.90;99.90;;;;;;5092411;28;20245;-63
2022/02/18 06:07:05;;;;;;;3.00;1.30;;;9.90;99.90;;;;;;5093039;28;20213;-64
2022/02/18 06:09:30;;;;;;;3.40;1.87;;;9.90;99.90;;;;;;5092651;28;20196;-63
2022/02/18 06:11:56;;;;;;;0.90;0.70;;;9.90;99.90;;;;;;5093056;28;20168;-64
2022/02/18 06:14:22;;;;;;;2.57;1.20;;;9.90;99.90;;;;;;5092480;28;20584;-63
2022/02/18 06:16:47;;;;;;;1.43;0.83;;;9.90;99.90;;;;;;5092696;28;20545;-66
2022/02/18 06:19:13;;;;;;;8.63;2.77;;;9.90;99.90;;;;;;5094654;28;20658;-63
2022/02/18 06:21:40;;;;;;;3.40;1.40;;;9.90;99.90;;;;;;5096539;28;20175;-67
2022/02/18 06:24:07;;;;;;;3.17;0.95;;;10.00;99.90;;;;;;5096161;28;20232;-66
2022/02/18 06:26:33;;;;;;;5.63;2.65;;;10.00;99.90;;;;;;5096619;28;20197;-67
2022/02/18 06:28:58;;;;;;;3.73;1.67;;;10.00;99.90;;;;;;5096376;28;20208;-65
2022/02/18 06:31:24;;;;;;;5.20;1.83;;;10.00;99.90;;;;;;5096461;28;20187;-67
2022/02/18 06:33:50;;;;;;;1.20;0.73;;;10.00;99.90;;;;;;5095959;28;20214;-63
2022/02/18 06:36:15;;;;;;;2.00;0.90;;;10.10;99.90;;;;;;5096207;28;20176;-64
2022/02/18 06:38:42;;;;;;;2.90;1.37;;;10.20;99.90;;;;;;5096863;28;20541;-64
2022/02/18 06:41:09;;;;;;;2.53;1.15;;;10.20;99.90;;;;;;5096549;28;20976;-65
2022/02/18 06:43:35;;;;;;;4.93;1.85;;;10.30;99.90;;;;;;5095952;28;20208;-65
2022/02/18 06:46:00;;;;;;;3.60;1.50;;;10.30;99.90;;;;;;5095940;28;20219;-63
2022/02/18 06:48:26;;;;;;;2.60;1.57;;;10.40;99.90;;;;;;5096156;28;20175;-70
2022/02/18 06:50:52;;;;;;;2.63;1.27;;;10.40;99.90;;;;;;5095302;28;20168;-64
2022/02/18 06:53:17;;;;;;;2.20;2.10;;;10.50;99.90;;;;;;5094466;28;20172;-64
2022/02/18 06:55:43;;;;;;;4.50;1.10;;;10.50;99.90;;;;;;5095319;28;20226;-62
2022/02/18 06:58:09;;;;;;;1.60;0.98;;;10.50;99.90;;;;;;5095657;28;20172;-64
2022/02/18 07:00:36;;;;;;;8.65;2.70;;;10.60;99.90;;;;;;5095253;28;20180;-63
2022/02/18 07:03:03;;;;;;;3.53;1.85;;;10.50;99.90;;;;;;5095226;28;20515;-62
2022/02/18 07:05:28;;;;;;;1.80;1.65;;;10.60;99.90;;;;;;5095017;28;20216;-65
2022/02/18 07:07:54;;;;;;;6.43;1.70;;;10.60;99.90;;;;;;5095506;28;20191;-64
2022/02/18 07:10:20;;;;;;;0.95;0.63;;;10.60;99.90;;;;;;5095584;28;20299;-63
2022/02/18 07:12:46;;;;;;;8.30;1.87;;;10.60;99.90;;;;;;5095093;28;20585;-64
2022/02/18 07:15:12;;;;;;;4.83;2.00;;;10.60;99.90;;;;;;5095080;28;20582;-63
2022/02/18 07:17:38;;;;;;;6.00;1.40;;;10.50;99.90;;;;;;5095319;28;20634;-63
2022/02/18 07:20:08;;;;;;;1.98;1.58;;;10.60;99.90;;;;;;5095059;28;20222;-65
2022/02/18 07:22:37;;;;;;;1.98;1.30;;;10.60;99.90;;;;;;5095412;28;20203;-65
2022/02/18 07:25:05;;;;;;;4.32;0.63;;;10.60;99.90;;;;;;5094711;28;20265;-65
2022/02/18 07:27:30;;;;;;;3.80;1.20;;;10.50;99.90;;;;;;5095033;28;20176;-62
2022/02/18 07:29:56;;;;;;;4.73;1.53;;;10.60;99.90;;;;;;5094903;28;20604;-66
2022/02/18 07:32:24;;;;;;;1.10;1.00;;;10.60;99.90;;;;;;5095096;28;20252;-61
2022/02/18 07:34:50;;;;;;;4.65;1.25;;;10.70;99.90;;;;;;5094082;28;20192;-65
2022/02/18 07:37:16;;;;;;;1.60;1.30;;;10.70;99.90;;;;;;5094871;28;20179;-60
2022/02/18 07:39:42;;;;;;;1.10;1.10;;;10.80;99.90;;;;;;5095157;28;20168;-63
2022/02/18 07:42:09;;;;;;;1.27;0.77;;;10.80;99.90;;;;;;5094836;28;20176;-63
2022/02/18 07:44:35;;;;;;;2.17;1.25;;;10.90;99.90;;;;;;5094019;28;20225;-64
2022/02/18 07:47:01;;;;;;;2.33;1.00;;;10.90;99.90;;;;;;5094753;28;20176;-64
2022/02/18 07:49:27;;;;;;;1.07;0.80;;;10.90;99.90;;;;;;5094540;28;20201;-64
2022/02/18 07:51:52;;;;;;;4.50;1.80;;;10.90;99.90;;;;;;5094908;28;20422;-65
2022/02/18 07:54:18;;;;;;;4.00;1.30;;;10.90;99.90;;;;;;5093785;28;20188;-61
2022/02/18 07:56:44;;;;;;;9.50;1.30;;;10.90;99.90;;;;;;5094398;28;20225;-64
2022/02/18 07:59:10;;;;;;;4.27;1.47;;;11.00;99.90;;;;;;5094303;28;20172;-61
2022/02/18 08:01:36;;;;;;;5.70;1.33;;;11.00;99.90;;;;;;5094607;28;20179;-65
2022/02/18 08:04:01;;;;;;;2.07;1.20;;;11.10;99.90;;;;;;5093392;28;20698;-64
2022/02/18 08:06:27;;;;;;;7.43;1.20;;;11.10;99.90;;;;;;5094044;28;20175;-64
2022/02/18 08:08:53;;;;;;;0.80;0.67;;;11.10;99.90;;;;;;5094053;28;20207;-64
2022/02/18 08:11:19;;;;;;;3.57;1.30;;;11.20;99.90;;;;;;5094470;28;20209;-66
2022/02/18 08:13:45;;;;;;;5.72;1.08;;;11.30;99.90;;;;;;5093407;28;20172;-64
2022/02/18 08:16:13;;;;;;;5.68;2.33;;;11.30;99.90;;;;;;5094011;28;20174;-61
2022/02/18 08:18:41;;;;;;;1.45;0.90;;;11.30;99.90;;;;;;5093946;28;20629;-65
2022/02/18 08:21:07;;;;;;;2.13;1.70;;;11.40;99.90;;;;;;5094211;28;20177;-61
2022/02/18 08:23:33;;;;;;;2.10;1.23;;;11.40;99.90;;;;;;5093482;28;20183;-64
2022/02/18 08:25:59;;;;;;;0.87;0.60;;;11.50;99.90;;;;;;5093598;28;20435;-63
2022/02/18 08:28:24;;;;;;;1.10;0.60;;;11.50;99.90;;;;;;5094030;28;20410;-65
2022/02/18 08:30:50;;;;;;;4.13;1.13;;;11.60;99.90;;;;;;5093750;28;20165;-61
2022/02/18 08:33:16;;;;;;;1.57;1.13;;;11.60;99.90;;;;;;5093590;28;20195;-64
2022/02/18 08:35:42;;;;;;;1.30;1.23;;;11.60;99.90;;;;;;5093582;28;20197;-62
2022/02/18 08:38:07;;;;;;;3.13;1.33;;;11.70;99.90;;;;;;5093727;28;20230;-64
2022/02/18 08:40:34;;;;;;;1.83;1.00;;;11.80;99.90;;;;;;5093594;28;20427;-64
2022/02/18 08:43:01;;;;;;;1.53;1.00;;;11.80;99.90;;;;;;5092939;28;20787;-64
2022/02/18 08:45:27;;;;;;;4.30;1.77;;;12.00;99.90;;;;;;5093627;28;20458;-64
2022/02/18 08:47:53;;;;;;;1.90;0.80;;;12.00;99.90;;;;;;5093511;28;20721;-61
2022/02/18 08:50:19;;;;;;;1.40;1.00;;;12.10;99.90;;;;;;5093430;28;20448;-63
2022/02/18 08:52:44;;;;;;;1.10;0.80;;;12.20;99.90;;;;;;5093338;28;20169;-62
2022/02/18 08:55:11;;;;;;;1.23;0.73;;;12.30;99.90;;;;;;5093234;28;20436;-65
2022/02/18 08:57:38;;;;;;;0.80;0.53;;;12.40;99.90;;;;;;5093469;28;20262;-61
2022/02/18 09:00:07;;;;;;;1.10;0.77;;;12.50;99.90;;;;;;5093552;28;20390;-64
2022/02/18 09:02:35;;;;;;;2.03;0.70;;;12.50;99.90;;;;;;5093208;28;20821;-61
2022/02/18 09:05:01;;;;;;;3.40;1.67;;;12.70;99.90;;;;;;5092368;28;20976;-64
2022/02/18 09:07:27;;;;;;;3.60;1.67;;;12.80;99.90;;;;;;5093306;28;20919;-62
2022/02/18 09:09:54;;;;;;;0.50;0.50;;;12.90;99.90;;;;;;5093476;28;20519;-66
2022/02/18 09:12:20;;;;;;;2.40;0.60;;;13.00;99.90;;;;;;5093307;28;20409;-63
2022/02/18 09:14:46;;;;;;;2.30;0.87;;;13.20;99.90;;;;;;5092252;28;20455;-66
2022/02/18 09:17:11;;;;;;;2.30;0.47;;;13.50;99.90;;;;;;5093505;28;20171;-65
2022/02/18 09:19:37;;;;;;;1.07;0.57;;;13.70;99.90;;;;;;5093168;28;20403;-64
2022/02/18 09:22:03;;;;;;;0.93;0.60;;;13.80;99.90;;;;;;5093322;28;20183;-66
2022/02/18 09:24:29;;;;;;;1.60;0.80;;;13.80;99.90;;;;;;5092913;28;20205;-63
2022/02/18 09:26:54;;;;;;;1.43;0.80;;;13.70;99.90;;;;;;5093430;28;20396;-65
2022/02/18 09:29:20;;;;;;;1.77;0.63;;;13.70;99.90;;;;;;5091613;28;20248;-64
2022/02/18 09:31:46;;;;;;;1.23;0.63;;;13.70;99.90;;;;;;5093459;28;20175;-69
2022/02/18 09:34:12;;;;;;;0.87;0.67;;;13.70;99.90;;;;;;5092876;28;20192;-61
2022/02/18 09:36:38;;;;;;;2.47;1.43;;;13.80;99.90;;;;;;5093314;28;20416;-67
2022/02/18 09:39:05;;;;;;;2.00;0.87;;;13.80;99.90;;;;;;5092934;28;20444;-65
2022/02/18 09:41:34;;;;;;;0.40;0.40;;;13.90;99.90;;;;;;5093327;28;20251;-65
2022/02/18 09:44:01;;;;;;;0.60;0.33;;;13.90;99.90;;;;;;5092695;28;20425;-63
2022/02/18 09:46:30;;;;;;;1.03;0.83;;;14.00;99.90;;;;;;5093225;28;20365;-63
2022/02/18 09:48:55;;;;;;;1.27;0.50;;;14.20;99.90;;;;;;5091250;28;20513;-65
2022/02/18 09:51:21;;;;;;;2.20;0.57;;;14.30;99.90;;;;;;5091308;28;20508;-63
2022/02/18 09:53:48;;;;;;;1.27;0.30;;;14.40;99.90;;;;;;5092609;28;20385;-61
2022/02/18 09:56:18;;;;;;;1.57;0.37;;;14.50;99.90;;;;;;5095521;28;20530;-63
2022/02/18 09:58:44;;;;;;;0.80;0.50;;;14.60;99.90;;;;;;5092699;28;20442;-63
2022/02/18 10:01:12;;;;;;;0.60;0.40;;;14.70;99.90;;;;;;5095202;28;20805;-63
2022/02/18 10:03:39;;;;;;;0.97;0.50;;;14.70;99.90;;;;;;5095134;28;20192;-63
2022/02/18 10:06:05;;;;;;;0.73;0.60;;;14.70;99.90;;;;;;5097060;28;20753;-65
2022/02/18 10:08:31;;;;;;;1.73;0.60;;;14.80;99.90;;;;;;5096830;28;20384;-66
2022/02/18 10:11:06;;;;;;;0.47;0.47;;;15.00;99.90;;;;;;5096219;28;20453;-65
2022/02/18 10:13:40;;;;;;;0.40;0.40;;;15.00;99.90;;;;;;5096295;28;20398;-65
2022/02/18 10:16:15;;;;;;;1.13;0.90;;;15.10;99.90;;;;;;5096357;28;20430;-65
2022/02/18 10:19:01;;;;;;;4.33;1.90;;;15.20;99.90;;;;;;5096740;28;20824;-64
2022/02/18 10:21:29;;;;;;;0.73;0.70;;;15.30;99.90;;;;;;5096355;28;20425;-67
2022/02/18 10:24:17;;;;;;;1.13;0.50;;;15.50;99.90;;;;;;5096045;28;20403;-65
2022/02/18 10:26:51;;;;;;;0.87;0.73;;;15.80;99.90;;;;;;5096522;28;20468;-64
2022/02/18 10:29:21;;;;;;;1.10;0.43;;;16.20;99.90;;;;;;5095910;28;20430;-62
2022/02/18 10:32:14;;;;;;;0.50;0.50;;;16.80;99.70;;;;;;5096276;28;20894;-64
2022/02/18 10:35:01;;;;;;;0.50;0.50;;;17.80;98.90;;;;;;5095813;28;20404;-64
2022/02/18 10:37:30;;;;;;;0.43;0.43;;;18.50;97.60;;;;;;5096154;28;20779;-67
2022/02/18 10:40:08;;;;;;;0.63;0.60;;;18.80;96.70;;;;;;5095849;28;20450;-63
2022/02/18 10:42:34;;;;;;;1.33;0.43;;;18.90;95.90;;;;;;5094370;28;20931;-64
2022/02/18 10:45:09;;;;;;;1.13;1.00;;;18.80;95.80;;;;;;5095575;28;20419;-64
2022/02/18 10:47:34;;;;;;;1.57;0.87;;;18.50;96.00;;;;;;5096253;28;20908;-64
2022/02/18 10:50:01;;;;;;;1.70;0.70;;;18.30;96.40;;;;;;5095402;28;20458;-64
2022/02/18 10:52:26;;;;;;;0.80;0.80;;;18.10;96.50;;;;;;5095494;28;20176;-64
2022/02/18 10:54:53;;;;;;;1.07;0.73;;;17.80;97.00;;;;;;5094975;28;21125;-64
2022/02/18 10:57:26;;;;;;;1.13;0.77;;;17.70;97.10;;;;;;5095499;28;20176;-65
2022/02/18 10:59:57;;;;;;;1.00;0.60;;;17.50;97.00;;;;;;5095451;28;20395;-64
2022/02/18 11:02:39;;;;;;;0.70;0.70;;;17.40;97.40;;;;;;5095547;28;20876;-64
2022/02/18 11:05:24;;;;;;;1.30;1.00;;;17.20;97.60;;;;;;5094389;28;20442;-63
2022/02/18 11:07:51;;;;;;;0.60;0.60;;;17.00;97.80;;;;;;5095163;28;20467;-64
2022/02/18 11:10:32;;;;;;;0.90;0.80;;;16.90;98.20;;;;;;5095000;28;20445;-64
2022/02/18 11:12:59;;;;;;;1.13;0.87;;;16.90;98.30;;;;;;5095107;28;20409;-65
2022/02/18 11:15:26;;;;;;;0.73;0.50;;;17.00;98.40;;;;;;5094892;28;20471;-64
2022/02/18 11:17:53;;;;;;;1.17;1.07;;;17.20;98.20;;;;;;5095342;28;20412;-64
2022/02/18 11:20:19;;;;;;;0.70;0.60;;;17.40;98.10;;;;;;5095013;28;20451;-65
2022/02/18 11:22:45;;;;;;;1.30;0.50;;;17.50;97.60;;;;;;5093051;28;20385;-63
2022/02/18 11:25:11;;;;;;;0.83;0.80;;;17.60;97.40;;;;;;5093852;28;20431;-64
2022/02/18 11:27:38;;;;;;;0.80;0.53;;;17.60;97.40;;;;;;5094189;28;20420;-64
2022/02/18 11:30:05;;;;;;;1.07;0.77;;;17.60;97.20;;;;;;5094863;28;20450;-63
2022/02/18 11:32:37;;;;;;;0.50;0.50;;;17.70;97.00;;;;;;5095262;28;20459;-64
2022/02/18 11:35:12;;;;;;;0.60;0.60;;;17.70;97.00;;;;;;5094649;28;20479;-64
2022/02/18 11:38:00;;;;;;;1.03;0.70;;;17.60;97.10;;;;;;5094718;28;20408;-63
2022/02/18 11:40:34;;;;;;;3.03;0.67;;;17.70;97.20;;;;;;5094163;28;20470;-65
2022/02/18 11:43:13;;;;;;;0.60;0.60;;;17.70;97.00;;;;;;5094462;28;20801;-63
2022/02/18 11:45:38;;;;;;;1.90;0.50;;;17.70;97.10;;;;;;5093108;28;20408;-64
2022/02/18 11:48:04;;;;;;;2.93;1.17;;;17.70;96.90;;;;;;5093374;28;20436;-64
2022/02/18 11:50:30;;;;;;;0.87;0.50;;;17.70;96.50;;;;;;5092997;28;20576;-63
2022/02/18 11:52:56;;;;;;;0.70;0.70;;;17.70;96.40;;;;;;5091576;28;20199;-65
2022/02/18 11:55:35;;;;;;;0.57;0.57;;;17.70;95.40;;;;;;5092990;28;20425;-65
2022/02/18 11:58:03;;;;;;;0.50;0.50;;;17.60;95.60;;;;;;5089922;28;20803;-63
2022/02/18 12:00:44;;;;;;;2.20;0.83;;;17.60;95.50;;;;;;5093475;28;20422;-65
2022/02/18 12:03:24;;;;;;;0.60;0.60;;;17.50;95.40;;;;;;5093322;28;20474;-65
2022/02/18 12:06:05;;;;;;;0.50;0.50;;;17.50;95.30;;;;;;5093190;28;20487;-65
2022/02/18 12:08:33;;;;;;;0.57;0.57;;;17.60;95.60;;;;;;5091088;28;20444;-64
2022/02/18 12:11:16;;;;;;;0.70;0.60;;;17.50;95.40;;;;;;5093928;28;20904;-64
2022/02/18 12:13:54;;;;;;;1.07;0.93;;;17.50;95.60;;;;;;5093645;28;20451;-66
2022/02/18 12:16:22;;;;;;;0.70;0.70;;;17.60;95.40;;;;;;5093423;28;20768;-64
2022/02/18 12:19:03;;;;;;;0.60;0.53;;;17.70;95.10;;;;;;5093541;28;20414;-64
2022/02/18 12:21:29;;;;;;;1.40;1.30;;;17.80;95.50;;;;;;5094130;28;20480;-64
2022/02/18 12:23:55;;;;;;;0.77;0.77;;;17.90;95.60;;;;;;5093759;28;20493;-65
2022/02/18 12:26:24;;;;;;;0.90;0.57;;;18.10;95.10;;;;;;5094133;28;20230;-65
2022/02/18 12:29:10;;;;;;;1.33;0.57;;;18.30;94.80;;;;;;5093255;28;20176;-65
2022/02/18 12:31:53;;;;;;;1.27;0.50;;;18.40;94.30;;;;;;5093748;28;20388;-65
2022/02/18 12:34:29;;;;;;;1.23;0.60;;;18.40;94.20;;;;;;5093233;28;21007;-65
2022/02/18 12:36:56;;;;;;;0.87;0.70;;;18.50;94.20;;;;;;5093877;28;20409;-64
2022/02/18 12:39:45;;;;;;;0.70;0.70;;;18.50;94.10;;;;;;5093345;28;20995;-64
2022/02/18 12:42:15;;;;;;;0.90;0.87;;;18.50;93.90;;;;;;5093817;28;20409;-64
2022/02/18 12:44:49;;;;;;;1.40;1.20;;;18.40;93.90;;;;;;5093265;28;20886;-64
2022/02/18 12:47:25;;;;;;;0.67;0.60;;;18.40;93.90;;;;;;5093619;28;20405;-64
2022/02/18 12:49:53;;;;;;;2.00;0.90;;;18.40;94.00;;;;;;5093307;28;20461;-64
2022/02/18 12:52:20;;;;;;;0.60;0.53;;;18.40;93.80;;;;;;5093803;28;20381;-64
2022/02/18 12:54:55;;;;;;;0.77;0.70;;;18.40;94.10;;;;;;5093336;28;20437;-63